Time;durP1;ratioP1;P1;durP2;ratioP2;P2;SDS_P1;SDS_P2;PMS_P1;PMS_P2;Temp;Humidity;BMP_temperature;BMP_pressure;BME280_temperature;BME280_humidity;BME280_pressure;Samples;Min_cycle;Max_cycle;Signal;HPM_P1;HPM_P2
2022/01/28 00:02:32;;;;;;;1.77;1.67;;;3.70;99.90;;;;;;5014912;28;20989;-74
2022/01/28 00:04:59;;;;;;;2.50;1.77;;;3.70;99.90;;;;;;5013633;28;20570;-73
2022/01/28 00:07:27;;;;;;;3.33;1.93;;;3.50;99.90;;;;;;5013180;28;20489;-74
2022/01/28 00:09:53;;;;;;;13.50;2.40;;;3.50;99.90;;;;;;5025130;28;20961;-74
2022/01/28 00:12:20;;;;;;;2.93;1.80;;;3.40;99.90;;;;;;5030134;28;20457;-74
2022/01/28 00:14:53;;;;;;;3.60;2.30;;;3.40;99.90;;;;;;5032447;28;20449;-73
2022/01/28 00:36:57;;;;;;;8.03;3.27;;;3.50;99.90;;;;;;4999180;28;20844;-73
2022/01/28 00:39:26;;;;;;;6.43;3.40;;;3.60;99.90;;;;;;5031806;28;20953;-74
2022/01/28 00:41:52;;;;;;;6.60;3.90;;;3.70;99.90;;;;;;5015752;28;20465;-74
2022/01/28 00:44:19;;;;;;;4.00;3.20;;;3.60;99.90;;;;;;5032833;28;20516;-74
2022/01/28 00:46:46;;;;;;;7.07;3.70;;;3.70;99.90;;;;;;5032649;28;20547;-73
2022/01/28 00:49:12;;;;;;;9.33;4.63;;;3.60;99.90;;;;;;5033206;28;20499;-74
2022/01/28 00:51:39;;;;;;;9.20;3.67;;;3.60;99.90;;;;;;5034526;28;20486;-74
2022/01/28 00:54:06;;;;;;;11.57;4.00;;;3.60;99.90;;;;;;5024115;28;20833;-74
2022/01/28 00:56:34;;;;;;;9.53;3.67;;;3.70;99.90;;;;;;5025864;28;20454;-74
2022/01/28 00:59:01;;;;;;;13.70;5.43;;;3.70;99.90;;;;;;5012918;28;21013;-74
2022/01/28 01:01:29;;;;;;;11.17;3.73;;;3.80;99.90;;;;;;5013518;28;20517;-74
2022/01/28 01:03:56;;;;;;;14.50;4.00;;;3.80;99.90;;;;;;5031855;28;20457;-74
2022/01/28 01:06:22;;;;;;;6.93;3.57;;;3.90;99.90;;;;;;5032509;28;20503;-74
2022/01/28 01:08:49;;;;;;;14.97;3.87;;;4.00;99.90;;;;;;5032821;28;20500;-74
2022/01/28 01:11:19;;;;;;;5.90;3.40;;;4.00;99.90;;;;;;5030003;28;20886;-74
2022/01/28 01:13:47;;;;;;;8.63;3.47;;;4.00;99.90;;;;;;5024457;28;20453;-74
2022/01/28 01:16:19;;;;;;;11.27;3.60;;;4.00;99.90;;;;;;5033323;28;20453;-74
2022/01/28 01:18:51;;;;;;;12.33;3.60;;;4.00;99.90;;;;;;5021719;28;20454;-74
2022/01/28 01:21:22;;;;;;;5.77;3.33;;;4.00;99.90;;;;;;5013741;28;20489;-74
2022/01/28 01:23:51;;;;;;;9.53;3.20;;;4.00;99.90;;;;;;5033113;28;20457;-74
2022/01/28 01:26:19;;;;;;;9.53;3.23;;;4.00;99.90;;;;;;5055073;28;20452;-73
2022/01/28 01:28:47;;;;;;;8.53;3.73;;;4.00;99.90;;;;;;5033536;28;20536;-74
2022/01/28 01:31:19;;;;;;;9.57;3.10;;;4.00;99.90;;;;;;5016895;28;20478;-74
2022/01/28 01:33:51;;;;;;;12.77;3.47;;;4.00;99.90;;;;;;5020402;28;20461;-74
2022/01/28 01:36:18;;;;;;;5.10;2.97;;;4.00;99.90;;;;;;5036486;28;20506;-74
2022/01/28 01:38:45;;;;;;;13.30;3.80;;;4.00;99.90;;;;;;5024518;28;20885;-74
2022/01/28 01:41:16;;;;;;;5.13;3.00;;;4.10;99.90;;;;;;5016337;28;20482;-74
2022/01/28 01:43:57;;;;;;;8.10;2.90;;;4.00;99.90;;;;;;5025843;28;20822;-74
2022/01/28 01:46:34;;;;;;;8.70;3.00;;;4.00;99.90;;;;;;5016399;28;20442;-74
2022/01/28 01:52:04;;;;;;;6.10;3.00;;;4.10;99.90;;;;;;5015074;28;20584;-74
2022/01/28 01:54:33;;;;;;;9.80;2.80;;;4.10;99.90;;;;;;5016745;28;20533;-74
2022/01/28 01:57:01;;;;;;;10.43;3.60;;;4.10;99.90;;;;;;5016586;28;20453;-74
2022/01/28 01:59:29;;;;;;;9.60;3.60;;;4.10;99.90;;;;;;5031419;28;20483;-73
2022/01/28 02:01:56;;;;;;;8.10;3.40;;;4.00;99.90;;;;;;5034779;28;21023;-74
2022/01/28 02:04:23;;;;;;;10.40;3.90;;;4.00;99.90;;;;;;5035225;28;20494;-73
2022/01/28 02:06:51;;;;;;;6.70;3.60;;;4.10;99.90;;;;;;5035788;28;20457;-74
2022/01/28 02:09:17;;;;;;;14.60;4.13;;;4.10;99.90;;;;;;5025454;28;20461;-74
2022/01/28 02:11:44;;;;;;;8.70;3.17;;;4.10;99.90;;;;;;5034759;28;21004;-74
2022/01/28 02:14:11;;;;;;;7.80;3.20;;;4.00;99.90;;;;;;5035777;28;20953;-74
2022/01/28 02:16:39;;;;;;;7.57;2.77;;;4.00;99.90;;;;;;5018326;28;20481;-74
2022/01/28 02:19:06;;;;;;;10.20;3.80;;;4.00;99.90;;;;;;5016693;28;20446;-73
2022/01/28 02:21:39;;;;;;;5.13;3.00;;;4.00;99.90;;;;;;5015825;28;20482;-74
2022/01/28 02:24:07;;;;;;;8.00;3.30;;;4.00;99.90;;;;;;5016636;28;20493;-74
2022/01/28 02:26:35;;;;;;;10.27;3.63;;;4.00;99.90;;;;;;5015718;28;20453;-74
2022/01/28 02:29:08;;;;;;;8.53;3.80;;;3.90;99.90;;;;;;5030488;28;20458;-74
2022/01/28 02:31:35;;;;;;;9.03;3.40;;;3.90;99.90;;;;;;5024373;28;20473;-74
2022/01/28 02:34:03;;;;;;;7.40;3.63;;;3.90;99.90;;;;;;5034988;28;20453;-74
2022/01/28 02:36:30;;;;;;;9.97;3.53;;;3.90;99.90;;;;;;5034798;28;20453;-74
2022/01/28 02:38:59;;;;;;;12.60;3.73;;;3.90;99.90;;;;;;5027978;28;20503;-74
2022/01/28 02:41:31;;;;;;;8.27;3.60;;;3.90;99.90;;;;;;5020024;28;20505;-74
2022/01/28 02:44:08;;;;;;;19.23;4.73;;;3.80;99.90;;;;;;5015717;28;20474;-74
2022/01/28 02:46:38;;;;;;;8.30;3.40;;;3.90;99.90;;;;;;5016354;28;20540;-74
2022/01/28 02:49:08;;;;;;;6.60;4.20;;;3.80;99.90;;;;;;5033994;28;20953;-74
2022/01/28 02:51:35;;;;;;;7.63;3.37;;;3.90;99.90;;;;;;5039773;28;20559;-74
2022/01/28 02:54:12;;;;;;;17.77;4.30;;;3.90;99.90;;;;;;5015186;28;20481;-74
2022/01/28 02:56:46;;;;;;;15.47;4.03;;;3.80;99.90;;;;;;5031689;28;20492;-74
2022/01/28 02:59:13;;;;;;;16.13;4.30;;;4.00;99.90;;;;;;5015279;28;20497;-73
2022/01/28 03:01:40;;;;;;;8.60;3.73;;;4.00;99.90;;;;;;5014883;28;21028;-74
2022/01/28 03:04:08;;;;;;;10.67;3.97;;;4.00;99.90;;;;;;5016130;28;20462;-74
2022/01/28 03:06:35;;;;;;;18.40;4.00;;;4.10;99.90;;;;;;5034036;28;20510;-73
2022/01/28 03:09:13;;;;;;;8.93;3.67;;;4.10;99.90;;;;;;5031431;28;20519;-74
2022/01/28 03:11:57;;;;;;;5.27;3.53;;;4.10;99.90;;;;;;5034346;28;20571;-74
2022/01/28 03:14:36;;;;;;;7.20;3.60;;;4.10;99.90;;;;;;5014280;28;20449;-74
2022/01/28 03:17:12;;;;;;;7.97;3.40;;;4.00;99.90;;;;;;5025493;28;20544;-74
2022/01/28 03:19:47;;;;;;;5.50;3.50;;;3.90;99.90;;;;;;5034570;28;20520;-74
2022/01/28 03:22:13;;;;;;;7.70;3.30;;;3.80;99.90;;;;;;5025182;28;20478;-74
2022/01/28 03:24:42;;;;;;;2.70;2.47;;;3.70;99.90;;;;;;5026645;28;20456;-74
2022/01/28 03:27:17;;;;;;;6.97;3.10;;;3.60;99.90;;;;;;5015201;28;20450;-73
2022/01/28 03:29:43;;;;;;;5.23;2.47;;;3.50;99.90;;;;;;5022738;28;20461;-74
2022/01/28 03:32:10;;;;;;;6.30;2.47;;;3.50;99.90;;;;;;5034172;28;20496;-74
2022/01/28 03:34:37;;;;;;;5.83;2.50;;;3.50;99.90;;;;;;5027527;28;20454;-74
2022/01/28 03:37:05;;;;;;;7.00;2.73;;;3.40;99.90;;;;;;5017779;28;20814;-74
2022/01/28 03:39:32;;;;;;;8.33;2.90;;;3.40;99.90;;;;;;5032647;28;20496;-73
2022/01/28 03:42:00;;;;;;;9.40;3.53;;;3.40;99.90;;;;;;5033241;28;20595;-74
2022/01/28 03:44:26;;;;;;;13.20;3.50;;;3.40;99.90;;;;;;5033618;28;20449;-74
2022/01/28 03:46:53;;;;;;;9.50;3.77;;;3.40;99.90;;;;;;5017706;28;20481;-74
2022/01/28 03:49:19;;;;;;;7.23;2.90;;;3.40;99.90;;;;;;5013091;28;20458;-74
2022/01/28 03:51:46;;;;;;;13.13;4.20;;;3.40;99.90;;;;;;5028312;28;20479;-74
2022/01/28 03:54:13;;;;;;;11.20;3.93;;;3.50;99.90;;;;;;5052717;28;20505;-74
2022/01/28 03:56:40;;;;;;;11.63;4.63;;;3.50;99.90;;;;;;5020880;28;20529;-73
2022/01/28 03:59:08;;;;;;;9.53;3.50;;;3.60;99.90;;;;;;5032832;28;20526;-74
2022/01/28 04:01:37;;;;;;;12.70;3.23;;;3.60;99.90;;;;;;5033583;28;20531;-74
2022/01/28 04:12:20;;;;;;;14.23;3.60;;;3.90;99.90;;;;;;5025958;28;20460;-73
2022/01/28 04:15:01;;;;;;;9.10;3.10;;;3.90;99.90;;;;;;5033293;28;20454;-72
2022/01/28 04:17:28;;;;;;;12.00;3.37;;;4.00;99.90;;;;;;5016454;28;20455;-74
2022/01/28 04:19:55;;;;;;;10.47;4.23;;;4.10;99.90;;;;;;5013477;28;20450;-72
2022/01/28 04:22:22;;;;;;;21.10;3.90;;;4.10;99.90;;;;;;5013925;28;20513;-73
2022/01/28 04:24:49;;;;;;;13.83;3.60;;;4.10;99.90;;;;;;5027519;28;20522;-74
2022/01/28 04:27:16;;;;;;;17.50;3.77;;;4.10;99.90;;;;;;5025146;28;20489;-73
2022/01/28 04:29:42;;;;;;;12.03;4.00;;;4.10;99.90;;;;;;5021381;28;20469;-74
2022/01/28 04:32:11;;;;;;;17.20;4.60;;;4.10;99.90;;;;;;5033533;28;20481;-74
2022/01/28 04:34:38;;;;;;;16.03;5.30;;;4.10;99.90;;;;;;5033626;28;20464;-74
2022/01/28 04:37:17;;;;;;;16.23;5.63;;;4.20;99.90;;;;;;5022096;28;20972;-73
2022/01/28 04:39:50;;;;;;;21.00;4.00;;;4.20;99.90;;;;;;5031845;28;20957;-73
2022/01/28 04:42:31;;;;;;;12.90;5.30;;;4.20;99.90;;;;;;5033370;28;20495;-73
2022/01/28 04:45:04;;;;;;;21.97;5.90;;;4.20;99.90;;;;;;5032628;28;20477;-73
2022/01/28 04:47:39;;;;;;;11.67;3.37;;;4.20;99.90;;;;;;5021107;28;21005;-74
2022/01/28 04:50:14;;;;;;;13.70;4.13;;;4.20;99.90;;;;;;5012741;28;20493;-74
2022/01/28 04:55:46;;;;;;;13.67;3.83;;;4.20;99.90;;;;;;5031175;28;20441;-74
2022/01/28 04:58:25;;;;;;;18.70;4.07;;;4.00;99.90;;;;;;5012391;28;20481;-73
2022/01/28 05:01:04;;;;;;;18.60;4.00;;;3.80;99.90;;;;;;5022478;28;20477;-73
2022/01/28 05:03:49;;;;;;;7.40;3.90;;;3.70;99.90;;;;;;5026329;28;20954;-73
2022/01/28 05:09:35;;;;;;;16.60;4.70;;;3.50;99.90;;;;;;5013173;28;20437;-73
2022/01/28 05:15:21;;;;;;;15.60;4.00;;;3.40;99.90;;;;;;5030006;28;20457;-73
2022/01/28 05:23:28;;;;;;;12.93;4.53;;;3.30;99.90;;;;;;5031918;28;20987;-74
2022/01/28 05:26:24;;;;;;;7.90;3.87;;;3.30;99.90;;;;;;5027433;28;20513;-74
2022/01/28 05:28:51;;;;;;;11.37;5.00;;;3.30;99.90;;;;;;5013300;28;20442;-73
2022/01/28 05:31:19;;;;;;;12.57;4.50;;;3.20;99.90;;;;;;5027588;28;20478;-73
2022/01/28 05:33:46;;;;;;;10.13;4.83;;;3.30;99.90;;;;;;5014920;28;20470;-71
2022/01/28 05:36:14;;;;;;;15.57;4.50;;;3.40;99.90;;;;;;5021729;28;20508;-74
2022/01/28 05:38:41;;;;;;;15.73;4.60;;;3.50;99.90;;;;;;5012875;28;20496;-74
2022/01/28 05:41:08;;;;;;;15.40;4.57;;;3.50;99.90;;;;;;5013175;28;20481;-73
2022/01/28 05:43:35;;;;;;;23.53;4.00;;;3.60;99.90;;;;;;5020792;28;20461;-72
2022/01/28 05:46:02;;;;;;;9.70;4.20;;;3.60;99.90;;;;;;5031582;28;21009;-74
2022/01/28 05:48:28;;;;;;;8.67;4.30;;;3.70;99.90;;;;;;5029744;28;20453;-73
2022/01/28 05:50:55;;;;;;;21.90;4.07;;;3.80;99.90;;;;;;5012199;28;20469;-72
2022/01/28 05:53:23;;;;;;;17.80;4.30;;;3.80;99.90;;;;;;5024344;28;20465;-73
2022/01/28 05:55:50;;;;;;;24.00;5.13;;;3.80;99.90;;;;;;5015004;28;20520;-73
2022/01/28 05:58:16;;;;;;;7.87;3.80;;;3.80;99.90;;;;;;5023052;28;20460;-72
2022/01/28 06:00:43;;;;;;;25.50;5.10;;;3.70;99.90;;;;;;5030498;28;20485;-72
2022/01/28 06:03:10;;;;;;;18.53;4.90;;;3.70;99.90;;;;;;5031218;28;20460;-73
2022/01/28 06:05:37;;;;;;;15.43;5.33;;;3.50;99.90;;;;;;5031689;28;20576;-73
2022/01/28 06:08:04;;;;;;;11.50;4.50;;;3.30;99.90;;;;;;5021768;28;20450;-73
2022/01/28 06:10:32;;;;;;;10.83;4.20;;;3.30;99.90;;;;;;5013082;28;20482;-73
2022/01/28 06:12:58;;;;;;;11.50;5.33;;;3.20;99.90;;;;;;5014901;28;20454;-73
2022/01/28 06:15:25;;;;;;;13.17;4.60;;;3.10;99.90;;;;;;5017952;28;20485;-72
2022/01/28 06:17:52;;;;;;;18.20;5.60;;;3.00;99.90;;;;;;5035489;28;20812;-73
2022/01/28 06:20:19;;;;;;;8.37;4.73;;;3.00;99.90;;;;;;5017440;28;20470;-73
2022/01/28 06:22:46;;;;;;;9.70;4.53;;;3.00;99.90;;;;;;5019382;28;20450;-73
2022/01/28 06:25:14;;;;;;;28.70;4.70;;;2.90;99.90;;;;;;5043425;28;20484;-73
2022/01/28 06:27:43;;;;;;;12.40;4.80;;;2.90;99.90;;;;;;5060213;28;20523;-72
2022/01/28 06:30:11;;;;;;;21.10;4.80;;;2.80;99.90;;;;;;5029338;28;20516;-73
2022/01/28 06:32:37;;;;;;;8.37;5.00;;;2.70;99.90;;;;;;5035724;28;20504;-72
2022/01/28 06:35:08;;;;;;;12.00;3.97;;;2.60;99.90;;;;;;5036103;28;20511;-73
2022/01/28 06:37:35;;;;;;;11.93;3.83;;;2.60;99.90;;;;;;5035972;28;20954;-73
2022/01/28 06:40:02;;;;;;;9.93;3.30;;;2.50;99.90;;;;;;5033196;28;20877;-73
2022/01/28 06:42:28;;;;;;;5.80;3.40;;;2.40;99.90;;;;;;5016540;28;20460;-74
2022/01/28 06:44:56;;;;;;;8.67;2.97;;;2.40;99.90;;;;;;5016731;28;20953;-72
2022/01/28 06:47:23;;;;;;;2.90;2.70;;;2.40;99.90;;;;;;5033925;28;20902;-72
2022/01/28 06:49:50;;;;;;;5.27;3.53;;;2.40;99.90;;;;;;5035949;28;20449;-72
2022/01/28 06:52:17;;;;;;;10.03;2.63;;;2.40;99.90;;;;;;5032095;28;20474;-73
2022/01/28 06:54:43;;;;;;;4.97;3.20;;;2.50;99.90;;;;;;5028803;28;20457;-73
2022/01/28 06:57:10;;;;;;;10.30;3.43;;;2.50;99.90;;;;;;5034010;28;20875;-72
2022/01/28 06:59:37;;;;;;;11.83;3.13;;;2.50;99.90;;;;;;5033865;28;20870;-73
2022/01/28 07:02:05;;;;;;;5.87;3.27;;;2.50;99.90;;;;;;5025803;28;21002;-73
2022/01/28 07:04:32;;;;;;;4.13;3.33;;;2.50;99.90;;;;;;5035060;28;20457;-73
2022/01/28 07:06:59;;;;;;;6.83;3.63;;;2.60;99.90;;;;;;5030848;28;20554;-73
2022/01/28 07:09:25;;;;;;;5.83;3.33;;;2.60;99.90;;;;;;5032830;28;20481;-73
2022/01/28 07:11:52;;;;;;;10.83;3.50;;;2.60;99.90;;;;;;5033355;28;20477;-73
2022/01/28 07:14:19;;;;;;;7.93;3.63;;;2.60;99.90;;;;;;5034051;28;20515;-73
2022/01/28 07:16:45;;;;;;;7.43;3.23;;;2.60;99.90;;;;;;5027338;28;20455;-72
2022/01/28 07:19:13;;;;;;;6.10;3.30;;;2.70;99.90;;;;;;5019396;28;20454;-71
2022/01/28 07:21:40;;;;;;;16.00;3.67;;;2.70;99.90;;;;;;5028156;28;20684;-73
2022/01/28 07:24:07;;;;;;;8.13;2.93;;;2.70;99.90;;;;;;5033486;28;20458;-72
2022/01/28 07:26:34;;;;;;;6.37;3.27;;;2.80;99.90;;;;;;5039956;28;21289;-72
2022/01/28 07:29:00;;;;;;;7.03;2.80;;;3.00;99.90;;;;;;5029279;28;20511;-72
2022/01/28 07:31:27;;;;;;;5.20;3.07;;;3.10;99.90;;;;;;5029814;28;20523;-73
2022/01/28 07:33:53;;;;;;;6.90;3.30;;;3.20;99.90;;;;;;5033262;28;20446;-73
2022/01/28 07:36:21;;;;;;;5.90;3.13;;;3.10;99.90;;;;;;5029715;28;20512;-73
2022/01/28 07:38:48;;;;;;;8.70;3.70;;;3.10;99.90;;;;;;5046402;28;20452;-73
2022/01/28 07:41:15;;;;;;;9.23;3.50;;;3.10;99.90;;;;;;5038358;28;20474;-72
2022/01/28 07:43:42;;;;;;;11.33;3.67;;;3.10;99.90;;;;;;5019007;28;20541;-73
2022/01/28 07:46:09;;;;;;;13.03;3.60;;;3.10;99.90;;;;;;5027135;28;21067;-72
2022/01/28 07:48:35;;;;;;;9.77;3.53;;;3.10;99.90;;;;;;5032503;28;20509;-70
2022/01/28 07:51:02;;;;;;;12.60;3.83;;;3.10;99.90;;;;;;5014479;28;20507;-71
2022/01/28 07:53:30;;;;;;;20.10;6.10;;;3.10;99.90;;;;;;5030513;28;20449;-73
2022/01/28 07:55:57;;;;;;;12.87;5.30;;;3.10;99.90;;;;;;5031580;28;20877;-73
2022/01/28 07:58:23;;;;;;;15.87;5.40;;;3.20;99.90;;;;;;5033017;28;20457;-72
2022/01/28 08:00:50;;;;;;;14.43;4.80;;;3.10;99.90;;;;;;5026503;28;20552;-73
2022/01/28 08:03:17;;;;;;;14.70;5.00;;;3.10;99.90;;;;;;5028449;28;20449;-70
2022/01/28 08:05:44;;;;;;;16.17;5.60;;;3.20;99.90;;;;;;5026725;28;20503;-72
2022/01/28 08:08:12;;;;;;;18.97;5.03;;;3.20;99.90;;;;;;5025670;28;20486;-72
2022/01/28 08:10:40;;;;;;;12.73;5.13;;;3.20;99.90;;;;;;5029922;28;20485;-71
2022/01/28 08:13:07;;;;;;;16.03;5.87;;;3.30;99.90;;;;;;5031851;28;20454;-71
2022/01/28 08:15:34;;;;;;;16.40;5.27;;;3.30;99.90;;;;;;5024127;28;20461;-71
2022/01/28 08:18:02;;;;;;;25.03;6.10;;;3.30;99.90;;;;;;5028308;28;20446;-70
2022/01/28 08:20:29;;;;;;;12.90;5.00;;;3.40;99.90;;;;;;5029799;28;20523;-69
2022/01/28 08:22:58;;;;;;;12.97;5.00;;;4.40;99.90;;;;;;5024307;28;20486;-70
2022/01/28 08:25:31;;;;;;;8.50;4.23;;;5.80;99.90;;;;;;5030746;28;21012;-72
2022/01/28 08:28:00;;;;;;;25.77;4.80;;;6.70;99.90;;;;;;5031690;28;20614;-72
2022/01/28 08:30:28;;;;;;;10.30;4.07;;;6.50;99.90;;;;;;5025472;28;20477;-73
2022/01/28 08:32:55;;;;;;;11.30;5.10;;;5.90;99.90;;;;;;5029771;28;20449;-72
2022/01/28 08:35:29;;;;;;;13.37;4.57;;;5.40;99.90;;;;;;5024209;28;20461;-71
2022/01/28 08:37:57;;;;;;;11.90;4.20;;;4.90;99.90;;;;;;5035426;28;20521;-71
2022/01/28 08:40:25;;;;;;;14.50;4.50;;;4.60;99.90;;;;;;5016984;28;21189;-71
2022/01/28 08:42:51;;;;;;;18.03;5.20;;;4.60;99.90;;;;;;5028421;28;20457;-70
2022/01/28 08:45:20;;;;;;;6.93;4.43;;;4.80;99.90;;;;;;5017567;28;20451;-73
2022/01/28 08:47:46;;;;;;;11.50;5.00;;;5.00;99.90;;;;;;5025413;28;20481;-72
2022/01/28 08:50:13;;;;;;;13.73;4.63;;;5.30;99.90;;;;;;5005738;28;20494;-72
2022/01/28 08:52:40;;;;;;;13.57;5.50;;;5.60;99.90;;;;;;4993301;28;20597;-72
2022/01/28 08:55:08;;;;;;;12.57;4.40;;;6.00;99.90;;;;;;4990136;28;20455;-71
2022/01/28 08:57:34;;;;;;;13.23;3.70;;;6.30;99.90;;;;;;4983187;28;20467;-72
2022/01/28 09:00:07;;;;;;;13.60;4.20;;;6.40;99.90;;;;;;4998969;28;20550;-72
2022/01/28 09:02:35;;;;;;;15.80;3.73;;;6.50;99.90;;;;;;4983949;28;20455;-72
2022/01/28 09:05:01;;;;;;;12.57;3.80;;;6.70;99.90;;;;;;4983932;28;20952;-73
2022/01/28 09:07:28;;;;;;;17.20;3.53;;;6.90;99.90;;;;;;4988469;28;20491;-72
2022/01/28 09:10:02;;;;;;;25.23;5.60;;;7.20;99.90;;;;;;4970978;28;20463;-72
2022/01/28 09:12:35;;;;;;;10.83;3.60;;;7.50;99.90;;;;;;4978345;28;20498;-73
2022/01/28 09:15:02;;;;;;;16.73;5.17;;;7.70;99.90;;;;;;4985682;28;20585;-72
2022/01/28 09:17:29;;;;;;;10.83;4.37;;;7.90;99.90;;;;;;4985109;28;20455;-72
2022/01/28 09:19:57;;;;;;;11.27;3.40;;;8.20;99.90;;;;;;4979262;28;20451;-72
2022/01/28 09:22:24;;;;;;;13.80;3.03;;;8.40;99.90;;;;;;4981358;28;20463;-71
2022/01/28 09:24:51;;;;;;;11.73;3.77;;;8.60;99.90;;;;;;4981449;28;20463;-74
2022/01/28 09:27:18;;;;;;;8.90;3.60;;;8.60;99.90;;;;;;4982182;28;21184;-72
2022/01/28 09:29:45;;;;;;;9.97;3.30;;;8.70;99.90;;;;;;4981042;28;20565;-72
2022/01/28 09:32:12;;;;;;;16.47;3.73;;;8.90;99.90;;;;;;4982300;28;20503;-70
2022/01/28 09:34:38;;;;;;;15.13;3.70;;;9.20;99.90;;;;;;4979405;28;20454;-72
2022/01/28 09:37:06;;;;;;;14.40;3.60;;;9.50;99.90;;;;;;4981597;28;20898;-73
2022/01/28 09:39:36;;;;;;;12.93;3.17;;;9.10;99.90;;;;;;4971495;28;20456;-73
2022/01/28 09:42:03;;;;;;;21.10;4.50;;;9.20;99.90;;;;;;4970627;28;20847;-72
2022/01/28 09:44:32;;;;;;;10.03;3.40;;;9.40;99.90;;;;;;4988279;28;20558;-74
2022/01/28 09:46:59;;;;;;;15.47;4.30;;;9.30;99.90;;;;;;4993990;28;20576;-73
2022/01/28 09:49:27;;;;;;;13.67;3.57;;;9.30;99.90;;;;;;4992899;28;20478;-73
2022/01/28 09:51:54;;;;;;;7.73;3.30;;;9.30;99.90;;;;;;4994973;28;20481;-72
2022/01/28 09:54:23;;;;;;;12.60;3.37;;;9.20;99.90;;;;;;4978527;28;20448;-70
2022/01/28 09:56:49;;;;;;;13.03;3.00;;;9.40;99.90;;;;;;4975533;28;21000;-72
2022/01/28 09:59:16;;;;;;;15.20;3.27;;;9.30;99.90;;;;;;4994272;28;20490;-73
2022/01/28 10:01:50;;;;;;;7.90;3.10;;;9.10;99.90;;;;;;4991732;28;20479;-73
2022/01/28 10:04:17;;;;;;;15.67;3.70;;;8.60;99.90;;;;;;4994550;28;20451;-74
2022/01/28 10:06:45;;;;;;;19.23;3.80;;;8.20;99.90;;;;;;4994342;28;20467;-74
2022/01/28 10:09:15;;;;;;;21.80;4.13;;;8.00;99.90;;;;;;4992957;28;20886;-73
2022/01/28 10:11:45;;;;;;;10.53;3.27;;;7.70;99.90;;;;;;4974705;28;20486;-74
2022/01/28 10:14:15;;;;;;;12.67;3.30;;;7.50;99.90;;;;;;4977382;28;20467;-73
2022/01/28 10:16:42;;;;;;;14.00;3.43;;;7.30;99.90;;;;;;4994137;28;20483;-72
2022/01/28 10:19:10;;;;;;;12.57;3.40;;;7.20;99.90;;;;;;4991980;28;20904;-73
2022/01/28 10:21:38;;;;;;;14.87;3.73;;;7.10;99.90;;;;;;4992386;28;20665;-73
2022/01/28 10:24:12;;;;;;;11.60;3.63;;;7.20;99.90;;;;;;4993662;28;20514;-72
2022/01/28 10:26:41;;;;;;;7.50;2.80;;;7.20;99.90;;;;;;4992784;28;20455;-72
2022/01/28 10:29:11;;;;;;;13.97;3.70;;;7.60;99.90;;;;;;4983582;28;21136;-74
2022/01/28 10:31:47;;;;;;;14.33;3.10;;;7.70;99.90;;;;;;4992353;28;20502;-74
2022/01/28 10:34:26;;;;;;;13.00;3.40;;;7.80;99.90;;;;;;4993731;28;20794;-72
2022/01/28 10:37:10;;;;;;;13.13;3.83;;;7.80;99.90;;;;;;4993735;28;20952;-72
2022/01/28 10:39:43;;;;;;;8.73;3.37;;;7.70;99.90;;;;;;4992640;28;20863;-74
2022/01/28 10:42:12;;;;;;;15.20;3.10;;;7.60;99.90;;;;;;4993417;28;20479;-71
2022/01/28 10:44:54;;;;;;;8.23;2.80;;;7.30;99.90;;;;;;4992349;28;21015;-74
2022/01/28 10:47:36;;;;;;;11.10;3.30;;;7.10;99.90;;;;;;4991841;28;20486;-73
2022/01/28 10:50:26;;;;;;;11.83;3.47;;;6.80;99.90;;;;;;4992794;28;20455;-74
2022/01/28 10:53:05;;;;;;;14.70;3.90;;;6.60;99.90;;;;;;4995987;28;20507;-70
2022/01/28 10:55:35;;;;;;;19.17;4.03;;;6.60;99.90;;;;;;4973704;28;20522;-74
2022/01/28 10:58:03;;;;;;;12.10;3.00;;;6.50;99.90;;;;;;4990561;28;20546;-73
2022/01/28 11:00:34;;;;;;;14.87;3.27;;;6.50;99.90;;;;;;4994131;28;20486;-74
2022/01/28 11:03:03;;;;;;;15.63;3.90;;;6.40;99.90;;;;;;4998024;28;20505;-72
2022/01/28 11:05:30;;;;;;;12.60;3.10;;;6.40;99.90;;;;;;4999872;28;20462;-72
2022/01/28 11:07:58;;;;;;;17.87;5.33;;;6.60;99.90;;;;;;4988896;28;20546;-74
2022/01/28 11:10:25;;;;;;;11.97;3.80;;;6.70;99.90;;;;;;4992136;28;20495;-72
2022/01/28 11:12:52;;;;;;;18.07;3.70;;;6.70;99.90;;;;;;4975869;28;20510;-72
2022/01/28 11:15:19;;;;;;;15.27;3.60;;;6.80;99.90;;;;;;4982907;28;20459;-73
2022/01/28 11:17:48;;;;;;;16.50;3.60;;;7.10;99.90;;;;;;4989002;28;20483;-71
2022/01/28 11:20:18;;;;;;;17.33;3.70;;;7.60;99.90;;;;;;4983441;28;20498;-72
2022/01/28 11:22:57;;;;;;;15.07;3.53;;;8.00;99.90;;;;;;4980006;28;20463;-72
2022/01/28 11:25:43;;;;;;;16.07;3.70;;;8.00;99.90;;;;;;4973854;28;20990;-73
2022/01/28 11:28:12;;;;;;;8.87;2.80;;;7.70;99.90;;;;;;4979288;28;20578;-73
2022/01/28 11:30:46;;;;;;;19.80;4.20;;;7.50;99.90;;;;;;4989070;28;20468;-72
2022/01/28 11:33:15;;;;;;;20.00;3.40;;;7.20;99.90;;;;;;4979416;28;20873;-73
2022/01/28 11:35:58;;;;;;;18.53;3.73;;;7.10;99.90;;;;;;4987321;28;20459;-73
2022/01/28 11:38:41;;;;;;;25.87;3.60;;;6.90;99.90;;;;;;4991869;28;20446;-73
2022/01/28 11:41:13;;;;;;;19.03;3.57;;;6.90;99.90;;;;;;4978823;28;20482;-72
2022/01/28 11:43:52;;;;;;;13.03;3.53;;;7.10;99.90;;;;;;4992746;28;20455;-71
2022/01/28 11:46:21;;;;;;;16.57;3.73;;;7.10;99.90;;;;;;4983845;28;20448;-73
2022/01/28 11:49:19;;;;;;;8.60;3.27;;;7.00;99.90;;;;;;4977644;28;20479;-73
2022/01/28 11:51:46;;;;;;;30.67;4.23;;;7.10;99.90;;;;;;4992232;28;20476;-73
2022/01/28 11:54:15;;;;;;;15.00;3.80;;;7.00;99.90;;;;;;4988440;28;20451;-72
2022/01/28 11:57:13;;;;;;;23.43;3.80;;;7.00;99.90;;;;;;4990456;28;20460;-72
2022/01/28 11:59:40;;;;;;;21.50;4.37;;;6.90;99.90;;;;;;5000810;28;20517;-71
2022/01/28 12:02:13;;;;;;;10.53;4.60;;;6.80;99.90;;;;;;4994015;28;20467;-72
2022/01/28 12:04:43;;;;;;;13.40;3.53;;;6.80;99.90;;;;;;4992275;28;20863;-73
2022/01/28 12:07:14;;;;;;;16.20;3.73;;;6.80;99.90;;;;;;4991812;28;20459;-73
2022/01/28 12:09:41;;;;;;;21.23;3.93;;;6.80;99.90;;;;;;4985261;28;20459;-73
2022/01/28 12:12:11;;;;;;;13.63;3.57;;;6.80;99.90;;;;;;4992392;28;20486;-73
2022/01/28 12:15:03;;;;;;;11.10;3.83;;;6.80;99.90;;;;;;4992195;28;20959;-72
2022/01/28 12:17:40;;;;;;;9.07;3.60;;;6.80;99.90;;;;;;4990919;28;20865;-72
2022/01/28 12:20:30;;;;;;;19.17;4.10;;;6.80;99.90;;;;;;4984762;28;20459;-72
2022/01/28 12:23:30;;;;;;;18.20;3.97;;;6.80;99.90;;;;;;4987910;28;20460;-73
2022/01/28 12:25:58;;;;;;;20.60;5.77;;;7.00;99.90;;;;;;4973425;28;20458;-74
2022/01/28 12:28:49;;;;;;;19.90;3.83;;;7.10;99.90;;;;;;4973032;28;20492;-72
2022/01/28 12:31:21;;;;;;;10.70;3.43;;;7.10;99.90;;;;;;4991529;28;20475;-73
2022/01/28 12:33:51;;;;;;;20.37;3.90;;;7.30;99.90;;;;;;4991066;28;20525;-72
2022/01/28 12:36:22;;;;;;;18.63;4.17;;;7.50;99.90;;;;;;4973292;28;20463;-73
2022/01/28 12:39:07;;;;;;;19.07;4.17;;;7.70;99.90;;;;;;4991164;28;20459;-72
2022/01/28 12:41:41;;;;;;;13.47;4.20;;;8.10;99.90;;;;;;4974419;28;21086;-73
2022/01/28 12:44:09;;;;;;;24.63;4.07;;;8.30;99.90;;;;;;4987767;28;21152;-72
2022/01/28 12:46:39;;;;;;;16.27;3.50;;;8.50;99.90;;;;;;4986406;28;20918;-72
2022/01/28 12:49:10;;;;;;;16.10;3.00;;;8.20;99.90;;;;;;4991170;28;20487;-72
2022/01/28 12:51:40;;;;;;;11.93;3.40;;;7.90;99.90;;;;;;4999039;28;20893;-72
2022/01/28 12:54:07;;;;;;;19.10;3.63;;;7.90;99.90;;;;;;4990342;28;20567;-72
2022/01/28 12:56:36;;;;;;;11.60;3.13;;;8.10;99.90;;;;;;4973529;28;20891;-73
2022/01/28 12:59:04;;;;;;;12.10;4.10;;;8.30;99.90;;;;;;4993270;28;20455;-73
2022/01/28 13:01:31;;;;;;;11.77;3.10;;;8.60;99.90;;;;;;4993152;28;20522;-72
2022/01/28 13:04:04;;;;;;;19.53;3.90;;;8.80;99.90;;;;;;4973077;28;20507;-73
2022/01/28 13:06:43;;;;;;;18.00;3.60;;;8.70;99.90;;;;;;4987714;28;20519;-73
2022/01/28 13:09:14;;;;;;;25.73;3.53;;;8.70;99.90;;;;;;4991112;28;20847;-72
2022/01/28 13:11:43;;;;;;;9.60;3.40;;;8.80;99.90;;;;;;4988297;28;20480;-72
2022/01/28 13:14:11;;;;;;;12.90;3.00;;;8.60;99.90;;;;;;4982044;28;21026;-72
2022/01/28 13:16:39;;;;;;;25.23;4.33;;;8.50;99.90;;;;;;4989399;28;20910;-73
2022/01/28 13:19:07;;;;;;;14.57;4.27;;;8.30;99.90;;;;;;4987917;28;20451;-72
2022/01/28 13:21:34;;;;;;;9.40;3.00;;;8.10;99.90;;;;;;4992008;28;20514;-74
2022/01/28 13:24:10;;;;;;;21.13;4.70;;;7.90;99.90;;;;;;4986731;28;20858;-72
2022/01/28 13:26:56;;;;;;;16.00;3.47;;;7.80;99.90;;;;;;4989354;28;20454;-74
2022/01/28 13:29:34;;;;;;;25.07;4.43;;;7.70;99.90;;;;;;4992840;28;20533;-74
2022/01/28 13:32:02;;;;;;;9.23;3.33;;;7.70;99.90;;;;;;4984022;28;20882;-73
2022/01/28 13:34:42;;;;;;;12.93;3.03;;;7.60;99.90;;;;;;4987461;28;20831;-74
2022/01/28 13:37:09;;;;;;;16.23;3.60;;;7.40;99.90;;;;;;4978429;28;20852;-74
2022/01/28 13:39:42;;;;;;;12.00;3.10;;;7.40;99.90;;;;;;4982401;28;20514;-74
2022/01/28 13:42:13;;;;;;;18.47;3.80;;;7.50;99.90;;;;;;4980558;28;20482;-75
2022/01/28 13:44:43;;;;;;;15.43;3.57;;;7.40;99.90;;;;;;4990590;28;20482;-74
2022/01/28 13:47:12;;;;;;;19.93;4.30;;;7.50;99.90;;;;;;4986602;28;20948;-74
2022/01/28 13:49:39;;;;;;;16.20;3.70;;;7.60;99.90;;;;;;4985035;28;20486;-74
2022/01/28 13:52:22;;;;;;;18.27;3.80;;;7.70;99.90;;;;;;5004944;28;20509;-73